sensor_id;sensor_type;location;lat;lon;timestamp;P1;durP1;ratioP1;P2;durP2;ratioP2
11877;SDS011;5998;42.676;23.268;2023-04-15T00:00:08;110.53;;;11.97;;
11877;SDS011;5998;42.676;23.268;2023-04-15T00:02:36;10.87;;;7.43;;
11877;SDS011;5998;42.676;23.268;2023-04-15T00:05:03;11.30;;;7.70;;
11877;SDS011;5998;42.676;23.268;2023-04-15T00:07:31;9.97;;;7.43;;
11877;SDS011;5998;42.676;23.268;2023-04-15T00:09:58;9.60;;;7.00;;
11877;SDS011;5998;42.676;23.268;2023-04-15T00:12:25;9.90;;;7.23;;
11877;SDS011;5998;42.676;23.268;2023-04-15T00:14:53;12.53;;;7.53;;
11877;SDS011;5998;42.676;23.268;2023-04-15T00:17:21;10.27;;;6.87;;
11877;SDS011;5998;42.676;23.268;2023-04-15T00:19:47;8.67;;;6.67;;
11877;SDS011;5998;42.676;23.268;2023-04-15T00:22:14;7.43;;;6.27;;
11877;SDS011;5998;42.676;23.268;2023-04-15T00:24:42;8.80;;;6.00;;
11877;SDS011;5998;42.676;23.268;2023-04-15T00:27:09;6.67;;;5.43;;
11877;SDS011;5998;42.676;23.268;2023-04-15T00:29:35;7.47;;;5.50;;
11877;SDS011;5998;42.676;23.268;2023-04-15T00:32:02;7.50;;;5.30;;
11877;SDS011;5998;42.676;23.268;2023-04-15T00:34:29;7.80;;;4.80;;
11877;SDS011;5998;42.676;23.268;2023-04-15T00:36:56;6.30;;;4.43;;
11877;SDS011;5998;42.676;23.268;2023-04-15T00:39:22;5.80;;;4.37;;
11877;SDS011;5998;42.676;23.268;2023-04-15T00:41:50;7.80;;;4.80;;
11877;SDS011;5998;42.676;23.268;2023-04-15T00:44:18;9.57;;;4.93;;
11877;SDS011;5998;42.676;23.268;2023-04-15T00:46:45;10.00;;;5.10;;
11877;SDS011;5998;42.676;23.268;2023-04-15T00:49:12;6.23;;;4.63;;
11877;SDS011;5998;42.676;23.268;2023-04-15T00:51:39;6.10;;;5.07;;
11877;SDS011;5998;42.676;23.268;2023-04-15T00:54:06;6.30;;;5.00;;
11877;SDS011;5998;42.676;23.268;2023-04-15T00:56:33;6.73;;;4.77;;
11877;SDS011;5998;42.676;23.268;2023-04-15T00:59:03;6.97;;;4.67;;
11877;SDS011;5998;42.676;23.268;2023-04-15T01:01:32;9.57;;;4.77;;
11877;SDS011;5998;42.676;23.268;2023-04-15T01:04:00;480.40;;;26.93;;
11877;SDS011;5998;42.676;23.268;2023-04-15T01:06:27;5.57;;;4.97;;
11877;SDS011;5998;42.676;23.268;2023-04-15T01:08:54;11.77;;;5.20;;
11877;SDS011;5998;42.676;23.268;2023-04-15T01:11:22;8.57;;;5.23;;
11877;SDS011;5998;42.676;23.268;2023-04-15T01:13:50;7.90;;;5.10;;
11877;SDS011;5998;42.676;23.268;2023-04-15T01:16:18;7.50;;;5.00;;
11877;SDS011;5998;42.676;23.268;2023-04-15T01:18:45;6.40;;;4.90;;
11877;SDS011;5998;42.676;23.268;2023-04-15T01:21:12;9.90;;;5.33;;
11877;SDS011;5998;42.676;23.268;2023-04-15T01:23:38;7.00;;;5.13;;
11877;SDS011;5998;42.676;23.268;2023-04-15T01:26:07;6.60;;;4.70;;
11877;SDS011;5998;42.676;23.268;2023-04-15T01:28:34;6.60;;;4.77;;
11877;SDS011;5998;42.676;23.268;2023-04-15T01:31:05;12.57;;;4.90;;
11877;SDS011;5998;42.676;23.268;2023-04-15T01:33:32;6.73;;;4.63;;
11877;SDS011;5998;42.676;23.268;2023-04-15T01:35:59;7.33;;;4.57;;
11877;SDS011;5998;42.676;23.268;2023-04-15T01:38:26;6.43;;;4.60;;
11877;SDS011;5998;42.676;23.268;2023-04-15T01:40:54;5.83;;;4.77;;
11877;SDS011;5998;42.676;23.268;2023-04-15T01:43:22;8.17;;;4.53;;
11877;SDS011;5998;42.676;23.268;2023-04-15T01:45:49;8.00;;;5.00;;
11877;SDS011;5998;42.676;23.268;2023-04-15T01:48:16;7.17;;;4.70;;
11877;SDS011;5998;42.676;23.268;2023-04-15T01:50:43;6.80;;;4.87;;
11877;SDS011;5998;42.676;23.268;2023-04-15T01:53:10;6.67;;;4.60;;
11877;SDS011;5998;42.676;23.268;2023-04-15T01:55:37;7.97;;;4.77;;
11877;SDS011;5998;42.676;23.268;2023-04-15T01:58:03;5.67;;;3.93;;
11877;SDS011;5998;42.676;23.268;2023-04-15T02:00:32;5.37;;;4.30;;
11877;SDS011;5998;42.676;23.268;2023-04-15T02:02:59;4.97;;;4.03;;
11877;SDS011;5998;42.676;23.268;2023-04-15T02:05:26;6.73;;;4.73;;
11877;SDS011;5998;42.676;23.268;2023-04-15T02:07:53;7.07;;;4.23;;
11877;SDS011;5998;42.676;23.268;2023-04-15T02:10:19;5.17;;;4.03;;
11877;SDS011;5998;42.676;23.268;2023-04-15T02:12:46;6.43;;;4.10;;
11877;SDS011;5998;42.676;23.268;2023-04-15T02:15:13;4.90;;;3.87;;
11877;SDS011;5998;42.676;23.268;2023-04-15T02:17:41;57.70;;;6.37;;
11877;SDS011;5998;42.676;23.268;2023-04-15T02:20:10;5.77;;;3.53;;
11877;SDS011;5998;42.676;23.268;2023-04-15T02:22:37;7.20;;;4.07;;
11877;SDS011;5998;42.676;23.268;2023-04-15T02:25:04;8.07;;;4.17;;
11877;SDS011;5998;42.676;23.268;2023-04-15T02:27:32;5.67;;;3.90;;
11877;SDS011;5998;42.676;23.268;2023-04-15T02:29:59;5.43;;;3.93;;
11877;SDS011;5998;42.676;23.268;2023-04-15T02:32:25;7.33;;;3.53;;
11877;SDS011;5998;42.676;23.268;2023-04-15T02:34:54;5.53;;;3.97;;
11877;SDS011;5998;42.676;23.268;2023-04-15T02:37:21;6.73;;;4.33;;
11877;SDS011;5998;42.676;23.268;2023-04-15T02:39:48;5.10;;;4.27;;
11877;SDS011;5998;42.676;23.268;2023-04-15T02:42:15;7.87;;;3.77;;
11877;SDS011;5998;42.676;23.268;2023-04-15T02:44:42;6.13;;;4.20;;
11877;SDS011;5998;42.676;23.268;2023-04-15T02:47:08;8.93;;;4.40;;
11877;SDS011;5998;42.676;23.268;2023-04-15T02:49:35;616.83;;;34.40;;
11877;SDS011;5998;42.676;23.268;2023-04-15T02:52:04;5.70;;;3.87;;
11877;SDS011;5998;42.676;23.268;2023-04-15T02:54:31;6.40;;;4.03;;
11877;SDS011;5998;42.676;23.268;2023-04-15T02:56:58;7.00;;;4.00;;
11877;SDS011;5998;42.676;23.268;2023-04-15T02:59:25;6.30;;;4.80;;
11877;SDS011;5998;42.676;23.268;2023-04-15T03:01:52;9.40;;;5.60;;
11877;SDS011;5998;42.676;23.268;2023-04-15T03:04:20;9.43;;;6.50;;
11877;SDS011;5998;42.676;23.268;2023-04-15T03:06:47;7.67;;;6.30;;
11877;SDS011;5998;42.676;23.268;2023-04-15T03:09:15;6.83;;;5.60;;
11877;SDS011;5998;42.676;23.268;2023-04-15T03:11:41;7.93;;;6.53;;
11877;SDS011;5998;42.676;23.268;2023-04-15T03:14:08;9.27;;;6.70;;
11877;SDS011;5998;42.676;23.268;2023-04-15T03:16:35;8.00;;;5.80;;
11877;SDS011;5998;42.676;23.268;2023-04-15T03:19:01;10.30;;;6.80;;
11877;SDS011;5998;42.676;23.268;2023-04-15T03:21:28;8.30;;;5.93;;
11877;SDS011;5998;42.676;23.268;2023-04-15T03:23:55;10.77;;;5.90;;
11877;SDS011;5998;42.676;23.268;2023-04-15T03:26:24;6.87;;;5.60;;
11877;SDS011;5998;42.676;23.268;2023-04-15T03:28:52;8.93;;;6.23;;
11877;SDS011;5998;42.676;23.268;2023-04-15T03:31:18;24.37;;;6.80;;
11877;SDS011;5998;42.676;23.268;2023-04-15T03:33:45;9.83;;;5.87;;
11877;SDS011;5998;42.676;23.268;2023-04-15T03:36:12;7.17;;;5.83;;
11877;SDS011;5998;42.676;23.268;2023-04-15T03:38:39;8.63;;;5.63;;
11877;SDS011;5998;42.676;23.268;2023-04-15T03:41:05;7.30;;;5.37;;
11877;SDS011;5998;42.676;23.268;2023-04-15T03:43:33;6.33;;;5.23;;
11877;SDS011;5998;42.676;23.268;2023-04-15T03:46:00;8.40;;;5.93;;
11877;SDS011;5998;42.676;23.268;2023-04-15T03:48:27;8.40;;;5.80;;
11877;SDS011;5998;42.676;23.268;2023-04-15T03:50:54;6.80;;;6.03;;
11877;SDS011;5998;42.676;23.268;2023-04-15T03:53:21;8.40;;;5.77;;
11877;SDS011;5998;42.676;23.268;2023-04-15T03:55:48;8.43;;;5.90;;
11877;SDS011;5998;42.676;23.268;2023-04-15T03:58:15;8.73;;;7.03;;
11877;SDS011;5998;42.676;23.268;2023-04-15T04:00:43;8.20;;;7.40;;
11877;SDS011;5998;42.676;23.268;2023-04-15T04:03:09;10.07;;;7.93;;
11877;SDS011;5998;42.676;23.268;2023-04-15T04:05:36;9.47;;;7.67;;
11877;SDS011;5998;42.676;23.268;2023-04-15T04:08:05;10.60;;;8.17;;
11877;SDS011;5998;42.676;23.268;2023-04-15T04:10:32;9.57;;;7.40;;
11877;SDS011;5998;42.676;23.268;2023-04-15T04:12:59;10.03;;;7.50;;
11877;SDS011;5998;42.676;23.268;2023-04-15T04:15:25;111.37;;;11.43;;
11877;SDS011;5998;42.676;23.268;2023-04-15T04:17:54;27.93;;;8.47;;
11877;SDS011;5998;42.676;23.268;2023-04-15T04:20:20;9.20;;;6.80;;
11877;SDS011;5998;42.676;23.268;2023-04-15T04:22:47;10.33;;;7.50;;
11877;SDS011;5998;42.676;23.268;2023-04-15T04:25:14;10.30;;;6.90;;
11877;SDS011;5998;42.676;23.268;2023-04-15T04:27:40;15.10;;;7.33;;
11877;SDS011;5998;42.676;23.268;2023-04-15T04:30:07;9.27;;;7.37;;
11877;SDS011;5998;42.676;23.268;2023-04-15T04:32:34;10.87;;;7.00;;
11877;SDS011;5998;42.676;23.268;2023-04-15T04:35:02;10.20;;;7.77;;
11877;SDS011;5998;42.676;23.268;2023-04-15T04:37:30;12.90;;;9.20;;
11877;SDS011;5998;42.676;23.268;2023-04-15T04:39:56;12.17;;;9.00;;
11877;SDS011;5998;42.676;23.268;2023-04-15T04:42:23;9.73;;;7.50;;
11877;SDS011;5998;42.676;23.268;2023-04-15T04:44:50;10.60;;;7.40;;
11877;SDS011;5998;42.676;23.268;2023-04-15T04:47:16;9.70;;;6.33;;
11877;SDS011;5998;42.676;23.268;2023-04-15T04:49:43;9.07;;;6.80;;
11877;SDS011;5998;42.676;23.268;2023-04-15T04:52:11;11.93;;;7.10;;
11877;SDS011;5998;42.676;23.268;2023-04-15T04:54:38;7.63;;;5.60;;
11877;SDS011;5998;42.676;23.268;2023-04-15T04:57:05;7.50;;;6.70;;
11877;SDS011;5998;42.676;23.268;2023-04-15T04:59:32;6.80;;;4.30;;
11877;SDS011;5998;42.676;23.268;2023-04-15T05:01:58;6.03;;;3.90;;
11877;SDS011;5998;42.676;23.268;2023-04-15T05:04:25;5.67;;;4.20;;
11877;SDS011;5998;42.676;23.268;2023-04-15T05:06:52;4.47;;;4.07;;
11877;SDS011;5998;42.676;23.268;2023-04-15T05:09:20;7.40;;;5.13;;
11877;SDS011;5998;42.676;23.268;2023-04-15T05:11:47;5.67;;;5.10;;
11877;SDS011;5998;42.676;23.268;2023-04-15T05:14:13;12.67;;;10.03;;
11877;SDS011;5998;42.676;23.268;2023-04-15T05:16:40;20.70;;;18.60;;
11877;SDS011;5998;42.676;23.268;2023-04-15T05:19:07;25.17;;;22.67;;
11877;SDS011;5998;42.676;23.268;2023-04-15T05:21:34;27.20;;;22.07;;
11877;SDS011;5998;42.676;23.268;2023-04-15T05:24:01;25.63;;;22.83;;
11877;SDS011;5998;42.676;23.268;2023-04-15T05:26:29;25.83;;;22.07;;
11877;SDS011;5998;42.676;23.268;2023-04-15T05:28:56;23.93;;;20.93;;
11877;SDS011;5998;42.676;23.268;2023-04-15T05:31:22;18.63;;;16.23;;
11877;SDS011;5998;42.676;23.268;2023-04-15T05:33:50;18.17;;;13.87;;
11877;SDS011;5998;42.676;23.268;2023-04-15T05:36:17;14.47;;;11.10;;
11877;SDS011;5998;42.676;23.268;2023-04-15T05:38:43;12.97;;;10.93;;
11877;SDS011;5998;42.676;23.268;2023-04-15T05:41:10;11.70;;;9.10;;
11877;SDS011;5998;42.676;23.268;2023-04-15T05:43:41;10.37;;;7.67;;
11877;SDS011;5998;42.676;23.268;2023-04-15T05:46:07;9.43;;;7.53;;
11877;SDS011;5998;42.676;23.268;2023-04-15T05:48:34;9.33;;;7.47;;
11877;SDS011;5998;42.676;23.268;2023-04-15T05:51:01;9.33;;;6.80;;
11877;SDS011;5998;42.676;23.268;2023-04-15T05:53:27;6.93;;;5.73;;
11877;SDS011;5998;42.676;23.268;2023-04-15T05:55:54;9.83;;;6.27;;
11877;SDS011;5998;42.676;23.268;2023-04-15T05:58:21;8.77;;;6.37;;
11877;SDS011;5998;42.676;23.268;2023-04-15T06:00:49;8.07;;;6.87;;
11877;SDS011;5998;42.676;23.268;2023-04-15T06:03:16;6.50;;;5.80;;
11877;SDS011;5998;42.676;23.268;2023-04-15T06:05:42;8.30;;;6.10;;
11877;SDS011;5998;42.676;23.268;2023-04-15T06:08:09;8.17;;;5.23;;
11877;SDS011;5998;42.676;23.268;2023-04-15T06:10:36;6.47;;;4.50;;
11877;SDS011;5998;42.676;23.268;2023-04-15T06:13:03;5.93;;;4.40;;
11877;SDS011;5998;42.676;23.268;2023-04-15T06:15:30;6.20;;;4.37;;
11877;SDS011;5998;42.676;23.268;2023-04-15T06:17:58;8.87;;;4.67;;
11877;SDS011;5998;42.676;23.268;2023-04-15T06:20:24;7.10;;;4.63;;
11877;SDS011;5998;42.676;23.268;2023-04-15T06:22:51;6.53;;;4.80;;
11877;SDS011;5998;42.676;23.268;2023-04-15T06:25:18;5.33;;;4.50;;
11877;SDS011;5998;42.676;23.268;2023-04-15T06:27:45;5.30;;;4.10;;
11877;SDS011;5998;42.676;23.268;2023-04-15T06:30:12;5.83;;;5.00;;
11877;SDS011;5998;42.676;23.268;2023-04-15T06:32:39;7.80;;;5.27;;
11877;SDS011;5998;42.676;23.268;2023-04-15T06:35:07;7.87;;;4.83;;
11877;SDS011;5998;42.676;23.268;2023-04-15T06:37:34;5.73;;;4.70;;
11877;SDS011;5998;42.676;23.268;2023-04-15T06:40:01;9.17;;;5.67;;
11877;SDS011;5998;42.676;23.268;2023-04-15T06:42:29;6.67;;;4.50;;
11877;SDS011;5998;42.676;23.268;2023-04-15T06:44:55;8.53;;;5.80;;
11877;SDS011;5998;42.676;23.268;2023-04-15T06:47:22;9.93;;;5.87;;
11877;SDS011;5998;42.676;23.268;2023-04-15T06:49:49;7.33;;;5.43;;
11877;SDS011;5998;42.676;23.268;2023-04-15T06:52:17;9.67;;;5.77;;
11877;SDS011;5998;42.676;23.268;2023-04-15T06:54:44;9.57;;;5.87;;
11877;SDS011;5998;42.676;23.268;2023-04-15T06:57:11;8.97;;;6.20;;
11877;SDS011;5998;42.676;23.268;2023-04-15T06:59:37;6.23;;;4.90;;
11877;SDS011;5998;42.676;23.268;2023-04-15T07:02:04;8.87;;;5.90;;
11877;SDS011;5998;42.676;23.268;2023-04-15T07:04:35;7.33;;;5.90;;
11877;SDS011;5998;42.676;23.268;2023-04-15T07:07:02;10.53;;;4.90;;
11877;SDS011;5998;42.676;23.268;2023-04-15T07:09:30;7.77;;;5.97;;
11877;SDS011;5998;42.676;23.268;2023-04-15T07:11:58;9.77;;;6.00;;
11877;SDS011;5998;42.676;23.268;2023-04-15T07:14:26;7.97;;;5.53;;
11877;SDS011;5998;42.676;23.268;2023-04-15T07:16:53;9.67;;;5.30;;
11877;SDS011;5998;42.676;23.268;2023-04-15T07:19:20;7.83;;;4.80;;
11877;SDS011;5998;42.676;23.268;2023-04-15T07:21:48;3.00;;;2.60;;
11877;SDS011;5998;42.676;23.268;2023-04-15T07:24:15;2.70;;;2.23;;
11877;SDS011;5998;42.676;23.268;2023-04-15T07:26:45;4.63;;;2.30;;
11877;SDS011;5998;42.676;23.268;2023-04-15T07:29:11;2.27;;;1.60;;
11877;SDS011;5998;42.676;23.268;2023-04-15T07:31:38;4.27;;;1.30;;
11877;SDS011;5998;42.676;23.268;2023-04-15T07:34:06;2.40;;;1.30;;
11877;SDS011;5998;42.676;23.268;2023-04-15T07:36:33;1.57;;;1.00;;
11877;SDS011;5998;42.676;23.268;2023-04-15T07:38:59;4.33;;;1.00;;
11877;SDS011;5998;42.676;23.268;2023-04-15T07:41:27;2.43;;;1.40;;
11877;SDS011;5998;42.676;23.268;2023-04-15T07:43:56;1.30;;;1.20;;
11877;SDS011;5998;42.676;23.268;2023-04-15T07:46:22;3.10;;;1.60;;
11877;SDS011;5998;42.676;23.268;2023-04-15T07:48:51;2.40;;;1.57;;
11877;SDS011;5998;42.676;23.268;2023-04-15T07:51:18;2.60;;;1.70;;
11877;SDS011;5998;42.676;23.268;2023-04-15T07:53:45;7.23;;;2.80;;
11877;SDS011;5998;42.676;23.268;2023-04-15T07:56:11;10.50;;;3.40;;
11877;SDS011;5998;42.676;23.268;2023-04-15T07:58:38;7.73;;;3.23;;
11877;SDS011;5998;42.676;23.268;2023-04-15T08:01:06;3.70;;;2.40;;
11877;SDS011;5998;42.676;23.268;2023-04-15T08:03:33;3.57;;;2.40;;
11877;SDS011;5998;42.676;23.268;2023-04-15T08:06:00;4.50;;;2.90;;
11877;SDS011;5998;42.676;23.268;2023-04-15T08:08:27;4.13;;;2.77;;
11877;SDS011;5998;42.676;23.268;2023-04-15T08:10:53;6.27;;;2.67;;
11877;SDS011;5998;42.676;23.268;2023-04-15T08:13:20;3.73;;;2.47;;
11877;SDS011;5998;42.676;23.268;2023-04-15T08:15:53;5.03;;;2.33;;
11877;SDS011;5998;42.676;23.268;2023-04-15T08:18:46;4.77;;;2.40;;
11877;SDS011;5998;42.676;23.268;2023-04-15T08:21:14;3.27;;;2.10;;
11877;SDS011;5998;42.676;23.268;2023-04-15T08:23:42;2.50;;;1.63;;
11877;SDS011;5998;42.676;23.268;2023-04-15T08:26:09;1.97;;;1.63;;
11877;SDS011;5998;42.676;23.268;2023-04-15T08:28:37;2.27;;;1.60;;
11877;SDS011;5998;42.676;23.268;2023-04-15T08:31:04;2.97;;;1.60;;
11877;SDS011;5998;42.676;23.268;2023-04-15T08:33:32;2.20;;;1.80;;
11877;SDS011;5998;42.676;23.268;2023-04-15T08:35:59;4.63;;;1.37;;
11877;SDS011;5998;42.676;23.268;2023-04-15T08:38:26;2.27;;;1.40;;
11877;SDS011;5998;42.676;23.268;2023-04-15T08:40:53;3.17;;;1.17;;
11877;SDS011;5998;42.676;23.268;2023-04-15T08:43:23;4.17;;;1.60;;
11877;SDS011;5998;42.676;23.268;2023-04-15T08:45:54;2.93;;;1.13;;
11877;SDS011;5998;42.676;23.268;2023-04-15T08:48:24;2.00;;;1.60;;
11877;SDS011;5998;42.676;23.268;2023-04-15T08:50:55;1.50;;;1.07;;
11877;SDS011;5998;42.676;23.268;2023-04-15T08:53:23;3.10;;;1.23;;
11877;SDS011;5998;42.676;23.268;2023-04-15T08:55:51;1.33;;;0.87;;
11877;SDS011;5998;42.676;23.268;2023-04-15T08:58:19;1.03;;;0.80;;
11877;SDS011;5998;42.676;23.268;2023-04-15T09:00:45;3.63;;;1.30;;
11877;SDS011;5998;42.676;23.268;2023-04-15T09:03:12;9.17;;;1.60;;
11877;SDS011;5998;42.676;23.268;2023-04-15T09:05:40;2.00;;;1.03;;
11877;SDS011;5998;42.676;23.268;2023-04-15T09:08:08;2.27;;;1.17;;
11877;SDS011;5998;42.676;23.268;2023-04-15T09:10:35;4.80;;;1.07;;
11877;SDS011;5998;42.676;23.268;2023-04-15T09:13:02;1.37;;;0.90;;
11877;SDS011;5998;42.676;23.268;2023-04-15T09:15:28;1.70;;;0.83;;
11877;SDS011;5998;42.676;23.268;2023-04-15T09:17:57;1.57;;;1.07;;
11877;SDS011;5998;42.676;23.268;2023-04-15T09:20:24;1.13;;;0.80;;
11877;SDS011;5998;42.676;23.268;2023-04-15T09:22:51;0.70;;;0.70;;
11877;SDS011;5998;42.676;23.268;2023-04-15T09:25:26;0.90;;;0.80;;
11877;SDS011;5998;42.676;23.268;2023-04-15T09:27:54;2.30;;;0.90;;
11877;SDS011;5998;42.676;23.268;2023-04-15T09:30:22;1.83;;;1.07;;
11877;SDS011;5998;42.676;23.268;2023-04-15T09:32:49;0.93;;;0.93;;
11877;SDS011;5998;42.676;23.268;2023-04-15T09:35:16;2.43;;;0.90;;
11877;SDS011;5998;42.676;23.268;2023-04-15T09:37:43;2.33;;;1.23;;
11877;SDS011;5998;42.676;23.268;2023-04-15T09:40:11;1.73;;;1.20;;
11877;SDS011;5998;42.676;23.268;2023-04-15T09:45:31;2.17;;;1.00;;
11877;SDS011;5998;42.676;23.268;2023-04-15T09:47:58;1.43;;;1.00;;
11877;SDS011;5998;42.676;23.268;2023-04-15T09:50:26;1.53;;;0.80;;
11877;SDS011;5998;42.676;23.268;2023-04-15T09:52:52;1.07;;;0.93;;
11877;SDS011;5998;42.676;23.268;2023-04-15T09:55:19;2.27;;;0.97;;
11877;SDS011;5998;42.676;23.268;2023-04-15T09:57:46;1.40;;;0.90;;
11877;SDS011;5998;42.676;23.268;2023-04-15T10:00:13;1.23;;;0.87;;
11877;SDS011;5998;42.676;23.268;2023-04-15T10:02:41;1.00;;;0.90;;
11877;SDS011;5998;42.676;23.268;2023-04-15T10:05:09;1.00;;;0.80;;
11877;SDS011;5998;42.676;23.268;2023-04-15T10:07:36;1.53;;;1.00;;
11877;SDS011;5998;42.676;23.268;2023-04-15T10:10:05;1.17;;;0.80;;
11877;SDS011;5998;42.676;23.268;2023-04-15T10:12:33;3.03;;;1.30;;
11877;SDS011;5998;42.676;23.268;2023-04-15T10:15:02;2.47;;;1.60;;
11877;SDS011;5998;42.676;23.268;2023-04-15T10:17:31;1.97;;;1.20;;
11877;SDS011;5998;42.676;23.268;2023-04-15T10:20:00;1.00;;;1.00;;
11877;SDS011;5998;42.676;23.268;2023-04-15T10:22:28;1.20;;;0.90;;
11877;SDS011;5998;42.676;23.268;2023-04-15T10:24:55;4.87;;;1.07;;
11877;SDS011;5998;42.676;23.268;2023-04-15T10:27:22;1.23;;;1.10;;
11877;SDS011;5998;42.676;23.268;2023-04-15T10:29:48;1.33;;;1.00;;
11877;SDS011;5998;42.676;23.268;2023-04-15T10:32:16;2.80;;;1.30;;
11877;SDS011;5998;42.676;23.268;2023-04-15T10:34:44;1.77;;;1.20;;
11877;SDS011;5998;42.676;23.268;2023-04-15T10:37:12;1.57;;;0.90;;
11877;SDS011;5998;42.676;23.268;2023-04-15T10:39:45;1.20;;;1.10;;
11877;SDS011;5998;42.676;23.268;2023-04-15T10:42:12;1.47;;;1.10;;
11877;SDS011;5998;42.676;23.268;2023-04-15T10:44:40;1.30;;;1.17;;
11877;SDS011;5998;42.676;23.268;2023-04-15T10:47:10;3.33;;;1.40;;
11877;SDS011;5998;42.676;23.268;2023-04-15T10:49:44;1.20;;;1.10;;
11877;SDS011;5998;42.676;23.268;2023-04-15T10:52:12;3.77;;;1.10;;
11877;SDS011;5998;42.676;23.268;2023-04-15T10:54:39;1.67;;;1.20;;
11877;SDS011;5998;42.676;23.268;2023-04-15T10:57:06;2.43;;;1.10;;
11877;SDS011;5998;42.676;23.268;2023-04-15T10:59:35;3.80;;;1.30;;
11877;SDS011;5998;42.676;23.268;2023-04-15T11:02:02;2.80;;;1.10;;
11877;SDS011;5998;42.676;23.268;2023-04-15T11:07:14;2.50;;;1.30;;
11877;SDS011;5998;42.676;23.268;2023-04-15T11:09:41;1.70;;;1.40;;
11877;SDS011;5998;42.676;23.268;2023-04-15T11:12:07;3.00;;;1.70;;
11877;SDS011;5998;42.676;23.268;2023-04-15T11:14:37;2.80;;;1.30;;
11877;SDS011;5998;42.676;23.268;2023-04-15T11:17:04;2.33;;;1.47;;
11877;SDS011;5998;42.676;23.268;2023-04-15T11:19:37;1.97;;;1.30;;
11877;SDS011;5998;42.676;23.268;2023-04-15T11:22:07;7.27;;;3.90;;
11877;SDS011;5998;42.676;23.268;2023-04-15T11:24:35;1.90;;;1.17;;
11877;SDS011;5998;42.676;23.268;2023-04-15T11:27:01;2.53;;;1.43;;
11877;SDS011;5998;42.676;23.268;2023-04-15T11:29:28;2.30;;;1.30;;
11877;SDS011;5998;42.676;23.268;2023-04-15T11:32:01;2.57;;;1.20;;
11877;SDS011;5998;42.676;23.268;2023-04-15T11:34:29;1.83;;;1.27;;
11877;SDS011;5998;42.676;23.268;2023-04-15T11:36:57;1.83;;;1.03;;
11877;SDS011;5998;42.676;23.268;2023-04-15T11:39:23;2.20;;;1.40;;
11877;SDS011;5998;42.676;23.268;2023-04-15T11:41:51;4.13;;;1.30;;
11877;SDS011;5998;42.676;23.268;2023-04-15T11:44:18;2.13;;;1.20;;
11877;SDS011;5998;42.676;23.268;2023-04-15T11:46:44;2.20;;;1.30;;
11877;SDS011;5998;42.676;23.268;2023-04-15T11:49:11;3.00;;;1.20;;
11877;SDS011;5998;42.676;23.268;2023-04-15T11:51:37;1.80;;;1.23;;
11877;SDS011;5998;42.676;23.268;2023-04-15T11:54:03;1.50;;;1.10;;
11877;SDS011;5998;42.676;23.268;2023-04-15T11:56:30;2.43;;;1.30;;
11877;SDS011;5998;42.676;23.268;2023-04-15T11:58:58;1.80;;;1.10;;
11877;SDS011;5998;42.676;23.268;2023-04-15T12:01:34;1.63;;;1.10;;
11877;SDS011;5998;42.676;23.268;2023-04-15T12:04:01;3.47;;;1.30;;
11877;SDS011;5998;42.676;23.268;2023-04-15T12:06:30;5.10;;;1.30;;
11877;SDS011;5998;42.676;23.268;2023-04-15T12:09:00;2.43;;;1.37;;
11877;SDS011;5998;42.676;23.268;2023-04-15T12:14:15;4.37;;;1.73;;
11877;SDS011;5998;42.676;23.268;2023-04-15T12:16:43;2.13;;;1.20;;
11877;SDS011;5998;42.676;23.268;2023-04-15T12:19:10;1.53;;;1.00;;
11877;SDS011;5998;42.676;23.268;2023-04-15T12:21:37;1.73;;;1.00;;
11877;SDS011;5998;42.676;23.268;2023-04-15T12:24:04;1.83;;;0.90;;
11877;SDS011;5998;42.676;23.268;2023-04-15T12:26:33;1.00;;;0.87;;
11877;SDS011;5998;42.676;23.268;2023-04-15T12:28:59;2.33;;;1.30;;
11877;SDS011;5998;42.676;23.268;2023-04-15T12:31:28;2.47;;;1.10;;
11877;SDS011;5998;42.676;23.268;2023-04-15T12:33:54;1.73;;;1.17;;
11877;SDS011;5998;42.676;23.268;2023-04-15T12:36:21;2.97;;;1.10;;
11877;SDS011;5998;42.676;23.268;2023-04-15T12:38:48;2.60;;;1.10;;
11877;SDS011;5998;42.676;23.268;2023-04-15T12:41:14;1.50;;;0.87;;
11877;SDS011;5998;42.676;23.268;2023-04-15T12:43:42;1.60;;;1.17;;
11877;SDS011;5998;42.676;23.268;2023-04-15T12:46:09;1.20;;;1.00;;
11877;SDS011;5998;42.676;23.268;2023-04-15T12:48:37;2.53;;;1.13;;
11877;SDS011;5998;42.676;23.268;2023-04-15T12:51:04;1.37;;;1.00;;
11877;SDS011;5998;42.676;23.268;2023-04-15T12:53:30;1.37;;;1.00;;
11877;SDS011;5998;42.676;23.268;2023-04-15T12:55:57;1.63;;;1.13;;
11877;SDS011;5998;42.676;23.268;2023-04-15T12:58:23;1.40;;;1.10;;
11877;SDS011;5998;42.676;23.268;2023-04-15T13:00:49;1.33;;;1.20;;
11877;SDS011;5998;42.676;23.268;2023-04-15T13:03:16;1.57;;;0.80;;
11877;SDS011;5998;42.676;23.268;2023-04-15T13:05:44;1.43;;;1.00;;
11877;SDS011;5998;42.676;23.268;2023-04-15T13:08:10;1.90;;;1.23;;
11877;SDS011;5998;42.676;23.268;2023-04-15T13:10:37;1.93;;;1.33;;
11877;SDS011;5998;42.676;23.268;2023-04-15T13:13:03;2.93;;;0.90;;
11877;SDS011;5998;42.676;23.268;2023-04-15T13:15:30;2.50;;;1.10;;
11877;SDS011;5998;42.676;23.268;2023-04-15T13:17:57;1.93;;;0.93;;
11877;SDS011;5998;42.676;23.268;2023-04-15T13:20:23;1.43;;;1.10;;
11877;SDS011;5998;42.676;23.268;2023-04-15T13:22:52;1.07;;;0.80;;
11877;SDS011;5998;42.676;23.268;2023-04-15T13:25:18;1.20;;;0.90;;
11877;SDS011;5998;42.676;23.268;2023-04-15T13:27:45;2.20;;;0.90;;
11877;SDS011;5998;42.676;23.268;2023-04-15T13:30:12;2.93;;;1.20;;
11877;SDS011;5998;42.676;23.268;2023-04-15T13:32:38;2.03;;;1.20;;
11877;SDS011;5998;42.676;23.268;2023-04-15T13:35:05;1.13;;;0.77;;
11877;SDS011;5998;42.676;23.268;2023-04-15T13:37:31;1.63;;;0.83;;
11877;SDS011;5998;42.676;23.268;2023-04-15T13:39:59;1.70;;;1.20;;
11877;SDS011;5998;42.676;23.268;2023-04-15T13:42:26;7.53;;;6.90;;
11877;SDS011;5998;42.676;23.268;2023-04-15T13:44:52;1.93;;;1.03;;
11877;SDS011;5998;42.676;23.268;2023-04-15T13:47:19;5.27;;;4.90;;
11877;SDS011;5998;42.676;23.268;2023-04-15T13:49:45;1.43;;;1.20;;
11877;SDS011;5998;42.676;23.268;2023-04-15T13:52:12;1.80;;;0.60;;
11877;SDS011;5998;42.676;23.268;2023-04-15T13:54:38;1.40;;;1.30;;
11877;SDS011;5998;42.676;23.268;2023-04-15T13:57:06;2.37;;;1.70;;
11877;SDS011;5998;42.676;23.268;2023-04-15T13:59:32;2.73;;;1.13;;
11877;SDS011;5998;42.676;23.268;2023-04-15T14:01:59;0.90;;;0.80;;
11877;SDS011;5998;42.676;23.268;2023-04-15T14:04:26;1.33;;;1.17;;
11877;SDS011;5998;42.676;23.268;2023-04-15T14:06:52;1.00;;;0.80;;
11877;SDS011;5998;42.676;23.268;2023-04-15T14:09:19;1.40;;;1.03;;
11877;SDS011;5998;42.676;23.268;2023-04-15T14:11:46;3.07;;;1.03;;
11877;SDS011;5998;42.676;23.268;2023-04-15T14:14:14;1.43;;;0.73;;
11877;SDS011;5998;42.676;23.268;2023-04-15T14:16:40;1.73;;;0.83;;
11877;SDS011;5998;42.676;23.268;2023-04-15T14:19:07;5.97;;;1.40;;
11877;SDS011;5998;42.676;23.268;2023-04-15T14:21:33;1.00;;;1.00;;
11877;SDS011;5998;42.676;23.268;2023-04-15T14:23:59;1.23;;;0.63;;
11877;SDS011;5998;42.676;23.268;2023-04-15T14:26:26;1.07;;;1.00;;
11877;SDS011;5998;42.676;23.268;2023-04-15T14:28:53;2.77;;;1.23;;
11877;SDS011;5998;42.676;23.268;2023-04-15T14:31:20;3.53;;;1.20;;
11877;SDS011;5998;42.676;23.268;2023-04-15T14:33:47;1.10;;;1.00;;
11877;SDS011;5998;42.676;23.268;2023-04-15T14:36:13;2.80;;;1.37;;
11877;SDS011;5998;42.676;23.268;2023-04-15T14:38:40;3.30;;;0.93;;
11877;SDS011;5998;42.676;23.268;2023-04-15T14:41:06;3.67;;;1.00;;
11877;SDS011;5998;42.676;23.268;2023-04-15T14:43:33;1.40;;;0.93;;
11877;SDS011;5998;42.676;23.268;2023-04-15T14:46:00;1.03;;;0.70;;
11877;SDS011;5998;42.676;23.268;2023-04-15T14:48:27;2.00;;;0.90;;
11877;SDS011;5998;42.676;23.268;2023-04-15T14:50:54;1.87;;;1.23;;
11877;SDS011;5998;42.676;23.268;2023-04-15T14:53:20;0.80;;;0.80;;